sensor_id;sensor_type;location;lat;lon;timestamp;P1;durP1;ratioP1;P2;durP2;ratioP2
19946;SDS011;10135;50.702;7.276;2022-08-06T00:01:58;1.95;;;1.10;;
19946;SDS011;10135;50.702;7.276;2022-08-06T00:03:58;2.00;;;1.02;;
19946;SDS011;10135;50.702;7.276;2022-08-06T00:05:59;1.05;;;1.00;;
19946;SDS011;10135;50.702;7.276;2022-08-06T00:08:00;1.45;;;0.98;;
19946;SDS011;10135;50.702;7.276;2022-08-06T00:10:01;1.58;;;1.00;;
19946;SDS011;10135;50.702;7.276;2022-08-06T00:12:03;0.90;;;0.90;;
19946;SDS011;10135;50.702;7.276;2022-08-06T00:14:05;2.60;;;1.15;;
19946;SDS011;10135;50.702;7.276;2022-08-06T00:16:06;1.65;;;1.00;;
19946;SDS011;10135;50.702;7.276;2022-08-06T00:18:06;3.28;;;0.95;;
19946;SDS011;10135;50.702;7.276;2022-08-06T00:20:07;1.85;;;1.10;;
19946;SDS011;10135;50.702;7.276;2022-08-06T00:22:09;1.15;;;1.13;;
19946;SDS011;10135;50.702;7.276;2022-08-06T00:24:10;1.10;;;1.00;;
19946;SDS011;10135;50.702;7.276;2022-08-06T00:26:10;1.45;;;1.20;;
19946;SDS011;10135;50.702;7.276;2022-08-06T00:28:11;1.00;;;1.00;;
19946;SDS011;10135;50.702;7.276;2022-08-06T00:30:12;3.70;;;1.33;;
19946;SDS011;10135;50.702;7.276;2022-08-06T00:32:12;1.30;;;1.10;;
19946;SDS011;10135;50.702;7.276;2022-08-06T00:34:13;2.65;;;0.98;;
19946;SDS011;10135;50.702;7.276;2022-08-06T00:36:14;2.53;;;1.00;;
19946;SDS011;10135;50.702;7.276;2022-08-06T00:38:14;1.17;;;1.00;;
19946;SDS011;10135;50.702;7.276;2022-08-06T00:40:15;1.40;;;1.10;;
19946;SDS011;10135;50.702;7.276;2022-08-06T00:42:19;1.52;;;1.00;;
19946;SDS011;10135;50.702;7.276;2022-08-06T00:44:20;1.20;;;1.20;;
19946;SDS011;10135;50.702;7.276;2022-08-06T00:46:20;1.08;;;1.08;;
19946;SDS011;10135;50.702;7.276;2022-08-06T00:48:22;2.37;;;1.30;;
19946;SDS011;10135;50.702;7.276;2022-08-06T00:50:23;1.00;;;1.00;;
19946;SDS011;10135;50.702;7.276;2022-08-06T00:52:23;1.10;;;1.10;;
19946;SDS011;10135;50.702;7.276;2022-08-06T00:54:24;1.17;;;1.17;;
19946;SDS011;10135;50.702;7.276;2022-08-06T00:56:26;1.30;;;1.00;;
19946;SDS011;10135;50.702;7.276;2022-08-06T00:58:26;3.23;;;1.10;;
19946;SDS011;10135;50.702;7.276;2022-08-06T01:00:28;1.17;;;1.10;;
19946;SDS011;10135;50.702;7.276;2022-08-06T01:02:28;1.20;;;1.10;;
19946;SDS011;10135;50.702;7.276;2022-08-06T01:04:29;2.17;;;1.40;;
19946;SDS011;10135;50.702;7.276;2022-08-06T01:06:30;1.33;;;1.23;;
19946;SDS011;10135;50.702;7.276;2022-08-06T01:08:31;1.83;;;1.40;;
19946;SDS011;10135;50.702;7.276;2022-08-06T01:10:31;1.87;;;1.30;;
19946;SDS011;10135;50.702;7.276;2022-08-06T01:12:32;1.57;;;1.10;;
19946;SDS011;10135;50.702;7.276;2022-08-06T01:14:33;1.20;;;1.20;;
19946;SDS011;10135;50.702;7.276;2022-08-06T01:16:35;1.00;;;1.00;;
19946;SDS011;10135;50.702;7.276;2022-08-06T01:19:11;1.43;;;1.33;;
19946;SDS011;10135;50.702;7.276;2022-08-06T01:21:43;1.23;;;1.13;;
19946;SDS011;10135;50.702;7.276;2022-08-06T01:28:42;1.40;;;1.33;;
19946;SDS011;10135;50.702;7.276;2022-08-06T01:30:52;1.30;;;1.05;;
19946;SDS011;10135;50.702;7.276;2022-08-06T01:33:06;1.43;;;1.17;;
19946;SDS011;10135;50.702;7.276;2022-08-06T01:35:14;2.23;;;1.20;;
19946;SDS011;10135;50.702;7.276;2022-08-06T01:39:38;2.63;;;1.20;;
19946;SDS011;10135;50.702;7.276;2022-08-06T01:41:45;1.03;;;1.00;;
19946;SDS011;10135;50.702;7.276;2022-08-06T01:43:51;1.23;;;1.20;;
19946;SDS011;10135;50.702;7.276;2022-08-06T01:45:52;1.13;;;1.10;;
19946;SDS011;10135;50.702;7.276;2022-08-06T01:47:56;3.20;;;1.33;;
19946;SDS011;10135;50.702;7.276;2022-08-06T01:50:03;1.90;;;1.30;;
19946;SDS011;10135;50.702;7.276;2022-08-06T01:52:08;1.27;;;1.23;;
19946;SDS011;10135;50.702;7.276;2022-08-06T01:54:11;1.60;;;1.47;;
19946;SDS011;10135;50.702;7.276;2022-08-06T01:56:14;1.43;;;1.30;;
19946;SDS011;10135;50.702;7.276;2022-08-06T01:58:17;2.60;;;1.20;;
19946;SDS011;10135;50.702;7.276;2022-08-06T02:00:24;1.50;;;1.30;;
19946;SDS011;10135;50.702;7.276;2022-08-06T02:02:26;1.27;;;1.17;;
19946;SDS011;10135;50.702;7.276;2022-08-06T02:04:33;1.30;;;1.13;;
19946;SDS011;10135;50.702;7.276;2022-08-06T02:06:42;1.33;;;1.20;;
19946;SDS011;10135;50.702;7.276;2022-08-06T02:08:46;1.70;;;1.30;;
19946;SDS011;10135;50.702;7.276;2022-08-06T02:10:50;1.83;;;1.73;;
19946;SDS011;10135;50.702;7.276;2022-08-06T02:12:54;1.17;;;1.17;;
19946;SDS011;10135;50.702;7.276;2022-08-06T02:14:57;1.50;;;1.40;;
19946;SDS011;10135;50.702;7.276;2022-08-06T02:17:04;1.73;;;1.50;;
19946;SDS011;10135;50.702;7.276;2022-08-06T02:19:07;4.30;;;1.30;;
19946;SDS011;10135;50.702;7.276;2022-08-06T02:21:15;3.13;;;1.47;;
19946;SDS011;10135;50.702;7.276;2022-08-06T02:23:22;2.33;;;1.10;;
19946;SDS011;10135;50.702;7.276;2022-08-06T02:25:25;1.47;;;1.07;;
19946;SDS011;10135;50.702;7.276;2022-08-06T02:27:26;2.53;;;1.27;;
19946;SDS011;10135;50.702;7.276;2022-08-06T02:29:29;1.50;;;1.30;;
19946;SDS011;10135;50.702;7.276;2022-08-06T02:31:32;1.87;;;1.40;;
19946;SDS011;10135;50.702;7.276;2022-08-06T02:33:34;1.20;;;1.20;;
19946;SDS011;10135;50.702;7.276;2022-08-06T02:35:52;1.63;;;1.43;;
19946;SDS011;10135;50.702;7.276;2022-08-06T02:38:01;1.57;;;1.47;;
19946;SDS011;10135;50.702;7.276;2022-08-06T02:40:11;1.63;;;1.57;;
19946;SDS011;10135;50.702;7.276;2022-08-06T02:42:30;2.37;;;1.40;;
19946;SDS011;10135;50.702;7.276;2022-08-06T02:44:40;1.40;;;1.30;;
19946;SDS011;10135;50.702;7.276;2022-08-06T02:47:09;1.60;;;1.50;;
19946;SDS011;10135;50.702;7.276;2022-08-06T02:49:19;1.60;;;1.40;;
19946;SDS011;10135;50.702;7.276;2022-08-06T02:51:29;2.03;;;1.50;;
19946;SDS011;10135;50.702;7.276;2022-08-06T02:53:46;1.20;;;1.20;;
19946;SDS011;10135;50.702;7.276;2022-08-06T02:56:32;2.30;;;1.37;;
19946;SDS011;10135;50.702;7.276;2022-08-06T02:58:47;1.30;;;1.30;;
19946;SDS011;10135;50.702;7.276;2022-08-06T03:00:52;4.47;;;1.57;;
19946;SDS011;10135;50.702;7.276;2022-08-06T03:02:57;1.13;;;1.13;;
19946;SDS011;10135;50.702;7.276;2022-08-06T03:05:01;3.37;;;1.47;;
19946;SDS011;10135;50.702;7.276;2022-08-06T03:07:07;1.50;;;1.40;;
19946;SDS011;10135;50.702;7.276;2022-08-06T03:09:10;2.70;;;1.40;;
19946;SDS011;10135;50.702;7.276;2022-08-06T03:11:14;1.83;;;1.33;;
19946;SDS011;10135;50.702;7.276;2022-08-06T03:13:17;1.97;;;1.20;;
19946;SDS011;10135;50.702;7.276;2022-08-06T03:15:21;3.20;;;1.40;;
19946;SDS011;10135;50.702;7.276;2022-08-06T03:17:25;1.60;;;1.57;;
19946;SDS011;10135;50.702;7.276;2022-08-06T03:19:28;1.97;;;1.40;;
19946;SDS011;10135;50.702;7.276;2022-08-06T03:21:30;1.63;;;1.50;;
19946;SDS011;10135;50.702;7.276;2022-08-06T03:23:33;1.70;;;1.50;;
19946;SDS011;10135;50.702;7.276;2022-08-06T03:25:36;6.03;;;1.47;;
19946;SDS011;10135;50.702;7.276;2022-08-06T03:27:39;1.63;;;1.47;;
19946;SDS011;10135;50.702;7.276;2022-08-06T03:29:42;4.87;;;1.90;;
19946;SDS011;10135;50.702;7.276;2022-08-06T03:31:44;3.40;;;1.50;;
19946;SDS011;10135;50.702;7.276;2022-08-06T03:33:45;1.60;;;1.47;;
19946;SDS011;10135;50.702;7.276;2022-08-06T03:35:47;1.40;;;1.30;;
19946;SDS011;10135;50.702;7.276;2022-08-06T03:37:51;1.63;;;1.53;;
19946;SDS011;10135;50.702;7.276;2022-08-06T03:39:54;1.27;;;1.20;;
19946;SDS011;10135;50.702;7.276;2022-08-06T03:41:57;2.50;;;1.43;;
19946;SDS011;10135;50.702;7.276;2022-08-06T03:43:59;1.43;;;1.33;;
19946;SDS011;10135;50.702;7.276;2022-08-06T03:46:01;2.53;;;1.20;;
19946;SDS011;10135;50.702;7.276;2022-08-06T03:48:06;1.33;;;1.30;;
19946;SDS011;10135;50.702;7.276;2022-08-06T03:50:12;1.57;;;1.47;;
19946;SDS011;10135;50.702;7.276;2022-08-06T03:52:20;3.70;;;1.20;;
19946;SDS011;10135;50.702;7.276;2022-08-06T03:54:27;1.60;;;1.50;;
19946;SDS011;10135;50.702;7.276;2022-08-06T03:56:33;1.43;;;1.33;;
19946;SDS011;10135;50.702;7.276;2022-08-06T03:58:40;1.30;;;1.30;;
19946;SDS011;10135;50.702;7.276;2022-08-06T04:00:47;2.13;;;1.50;;
19946;SDS011;10135;50.702;7.276;2022-08-06T04:02:55;1.50;;;1.40;;
19946;SDS011;10135;50.702;7.276;2022-08-06T04:04:58;1.67;;;1.50;;
19946;SDS011;10135;50.702;7.276;2022-08-06T04:07:01;1.30;;;1.20;;
19946;SDS011;10135;50.702;7.276;2022-08-06T04:09:03;1.80;;;1.30;;
19946;SDS011;10135;50.702;7.276;2022-08-06T04:11:06;2.13;;;1.60;;
19946;SDS011;10135;50.702;7.276;2022-08-06T04:13:12;1.40;;;1.33;;
19946;SDS011;10135;50.702;7.276;2022-08-06T04:15:15;1.90;;;1.40;;
19946;SDS011;10135;50.702;7.276;2022-08-06T04:17:16;1.90;;;1.40;;
19946;SDS011;10135;50.702;7.276;2022-08-06T04:19:19;1.50;;;1.40;;
19946;SDS011;10135;50.702;7.276;2022-08-06T04:21:22;1.50;;;1.40;;
19946;SDS011;10135;50.702;7.276;2022-08-06T04:23:24;5.10;;;1.43;;
19946;SDS011;10135;50.702;7.276;2022-08-06T04:25:25;1.30;;;1.30;;
19946;SDS011;10135;50.702;7.276;2022-08-06T04:27:32;2.70;;;1.60;;
19946;SDS011;10135;50.702;7.276;2022-08-06T04:29:37;1.90;;;1.50;;
19946;SDS011;10135;50.702;7.276;2022-08-06T04:31:38;2.10;;;1.47;;
19946;SDS011;10135;50.702;7.276;2022-08-06T04:33:42;1.40;;;1.40;;
19946;SDS011;10135;50.702;7.276;2022-08-06T04:35:45;2.40;;;1.53;;
19946;SDS011;10135;50.702;7.276;2022-08-06T04:37:47;2.17;;;1.90;;
19946;SDS011;10135;50.702;7.276;2022-08-06T04:39:48;5.33;;;1.50;;
19946;SDS011;10135;50.702;7.276;2022-08-06T04:41:50;1.57;;;1.47;;
19946;SDS011;10135;50.702;7.276;2022-08-06T04:43:52;2.43;;;1.70;;
19946;SDS011;10135;50.702;7.276;2022-08-06T04:45:53;1.53;;;1.43;;
19946;SDS011;10135;50.702;7.276;2022-08-06T04:47:55;1.63;;;1.33;;
19946;SDS011;10135;50.702;7.276;2022-08-06T04:49:57;1.77;;;1.50;;
19946;SDS011;10135;50.702;7.276;2022-08-06T04:51:58;2.53;;;1.77;;
19946;SDS011;10135;50.702;7.276;2022-08-06T04:53:59;1.57;;;1.47;;
19946;SDS011;10135;50.702;7.276;2022-08-06T04:56:05;3.37;;;1.50;;
19946;SDS011;10135;50.702;7.276;2022-08-06T04:58:08;1.70;;;1.60;;
19946;SDS011;10135;50.702;7.276;2022-08-06T05:00:12;1.67;;;1.57;;
19946;SDS011;10135;50.702;7.276;2022-08-06T05:02:13;1.50;;;1.40;;
19946;SDS011;10135;50.702;7.276;2022-08-06T05:04:14;3.27;;;1.80;;
19946;SDS011;10135;50.702;7.276;2022-08-06T05:06:19;2.40;;;1.67;;
19946;SDS011;10135;50.702;7.276;2022-08-06T05:08:20;2.47;;;1.50;;
19946;SDS011;10135;50.702;7.276;2022-08-06T05:10:26;4.77;;;1.77;;
19946;SDS011;10135;50.702;7.276;2022-08-06T05:12:41;3.57;;;1.70;;
19946;SDS011;10135;50.702;7.276;2022-08-06T05:14:52;1.83;;;1.73;;
19946;SDS011;10135;50.702;7.276;2022-08-06T05:17:06;2.07;;;1.70;;
19946;SDS011;10135;50.702;7.276;2022-08-06T05:19:15;4.07;;;1.70;;
19946;SDS011;10135;50.702;7.276;2022-08-06T05:21:23;3.53;;;1.77;;
19946;SDS011;10135;50.702;7.276;2022-08-06T05:23:52;2.03;;;1.83;;
19946;SDS011;10135;50.702;7.276;2022-08-06T05:25:54;3.30;;;2.03;;
19946;SDS011;10135;50.702;7.276;2022-08-06T05:27:55;5.20;;;2.20;;
19946;SDS011;10135;50.702;7.276;2022-08-06T05:29:56;4.47;;;2.10;;
19946;SDS011;10135;50.702;7.276;2022-08-06T05:31:58;4.07;;;2.20;;
19946;SDS011;10135;50.702;7.276;2022-08-06T05:33:59;6.23;;;2.20;;
19946;SDS011;10135;50.702;7.276;2022-08-06T05:36:02;6.07;;;2.30;;
19946;SDS011;10135;50.702;7.276;2022-08-06T05:38:06;2.87;;;2.03;;
19946;SDS011;10135;50.702;7.276;2022-08-06T05:40:08;2.60;;;2.07;;
19946;SDS011;10135;50.702;7.276;2022-08-06T05:42:09;2.10;;;2.00;;
19946;SDS011;10135;50.702;7.276;2022-08-06T05:44:10;2.03;;;1.93;;
19946;SDS011;10135;50.702;7.276;2022-08-06T05:46:11;3.53;;;1.87;;
19946;SDS011;10135;50.702;7.276;2022-08-06T05:48:20;1.83;;;1.73;;
19946;SDS011;10135;50.702;7.276;2022-08-06T05:50:28;2.23;;;2.03;;
19946;SDS011;10135;50.702;7.276;2022-08-06T05:52:36;8.07;;;2.10;;
19946;SDS011;10135;50.702;7.276;2022-08-06T05:57:11;2.30;;;2.07;;
19946;SDS011;10135;50.702;7.276;2022-08-06T05:59:21;3.57;;;2.03;;
19946;SDS011;10135;50.702;7.276;2022-08-06T06:01:28;2.03;;;1.93;;
19946;SDS011;10135;50.702;7.276;2022-08-06T06:03:32;3.40;;;2.43;;
19946;SDS011;10135;50.702;7.276;2022-08-06T06:05:33;2.47;;;1.90;;
19946;SDS011;10135;50.702;7.276;2022-08-06T06:07:36;2.23;;;1.70;;
19946;SDS011;10135;50.702;7.276;2022-08-06T06:09:37;2.67;;;2.00;;
19946;SDS011;10135;50.702;7.276;2022-08-06T06:11:39;2.10;;;1.90;;
19946;SDS011;10135;50.702;7.276;2022-08-06T06:13:41;1.77;;;1.60;;
19946;SDS011;10135;50.702;7.276;2022-08-06T06:15:45;3.83;;;2.00;;
19946;SDS011;10135;50.702;7.276;2022-08-06T06:20:52;2.17;;;1.97;;
19946;SDS011;10135;50.702;7.276;2022-08-06T06:23:46;1.80;;;1.70;;
19946;SDS011;10135;50.702;7.276;2022-08-06T06:31:10;3.03;;;1.83;;
19946;SDS011;10135;50.702;7.276;2022-08-06T06:37:03;3.60;;;1.80;;
19946;SDS011;10135;50.702;7.276;2022-08-06T06:38:59;3.50;;;1.80;;
19946;SDS011;10135;50.702;7.276;2022-08-06T06:41:26;6.73;;;1.80;;
19946;SDS011;10135;50.702;7.276;2022-08-06T06:48:15;1.80;;;1.67;;
19946;SDS011;10135;50.702;7.276;2022-08-06T06:50:23;1.80;;;1.70;;
19946;SDS011;10135;50.702;7.276;2022-08-06T06:52:35;3.20;;;1.50;;
19946;SDS011;10135;50.702;7.276;2022-08-06T06:54:43;1.60;;;1.50;;
19946;SDS011;10135;50.702;7.276;2022-08-06T06:56:52;2.50;;;1.40;;
19946;SDS011;10135;50.702;7.276;2022-08-06T06:59:04;4.23;;;1.47;;
19946;SDS011;10135;50.702;7.276;2022-08-06T07:01:15;1.73;;;1.63;;
19946;SDS011;10135;50.702;7.276;2022-08-06T07:03:18;1.80;;;1.70;;
19946;SDS011;10135;50.702;7.276;2022-08-06T07:05:21;1.73;;;1.40;;
19946;SDS011;10135;50.702;7.276;2022-08-06T07:07:23;1.63;;;1.50;;
19946;SDS011;10135;50.702;7.276;2022-08-06T07:09:25;1.50;;;1.40;;
19946;SDS011;10135;50.702;7.276;2022-08-06T07:11:31;3.00;;;1.50;;
19946;SDS011;10135;50.702;7.276;2022-08-06T07:13:34;1.83;;;1.30;;
19946;SDS011;10135;50.702;7.276;2022-08-06T07:15:36;2.67;;;1.50;;
19946;SDS011;10135;50.702;7.276;2022-08-06T07:17:40;2.93;;;1.30;;
19946;SDS011;10135;50.702;7.276;2022-08-06T07:19:43;2.67;;;1.20;;
19946;SDS011;10135;50.702;7.276;2022-08-06T07:21:46;2.20;;;1.13;;
19946;SDS011;10135;50.702;7.276;2022-08-06T07:23:49;1.33;;;1.23;;
19946;SDS011;10135;50.702;7.276;2022-08-06T07:25:52;2.37;;;1.10;;
19946;SDS011;10135;50.702;7.276;2022-08-06T07:27:54;1.30;;;1.20;;
19946;SDS011;10135;50.702;7.276;2022-08-06T07:29:55;2.93;;;1.20;;
19946;SDS011;10135;50.702;7.276;2022-08-06T07:31:58;1.20;;;1.03;;
19946;SDS011;10135;50.702;7.276;2022-08-06T07:34:01;1.10;;;1.00;;
19946;SDS011;10135;50.702;7.276;2022-08-06T07:36:02;1.20;;;1.10;;
19946;SDS011;10135;50.702;7.276;2022-08-06T07:38:04;1.20;;;1.10;;
19946;SDS011;10135;50.702;7.276;2022-08-06T07:40:10;1.83;;;0.90;;
19946;SDS011;10135;50.702;7.276;2022-08-06T07:42:22;1.00;;;1.00;;
19946;SDS011;10135;50.702;7.276;2022-08-06T07:44:25;2.57;;;1.10;;
19946;SDS011;10135;50.702;7.276;2022-08-06T07:46:31;1.02;;;0.95;;
19946;SDS011;10135;50.702;7.276;2022-08-06T07:48:47;0.70;;;0.70;;
19946;SDS011;10135;50.702;7.276;2022-08-06T07:50:53;2.73;;;1.00;;
19946;SDS011;10135;50.702;7.276;2022-08-06T07:52:57;1.83;;;1.00;;
19946;SDS011;10135;50.702;7.276;2022-08-06T07:54:59;0.93;;;0.93;;
19946;SDS011;10135;50.702;7.276;2022-08-06T07:57:00;0.97;;;0.97;;
19946;SDS011;10135;50.702;7.276;2022-08-06T07:59:02;2.67;;;1.00;;
19946;SDS011;10135;50.702;7.276;2022-08-06T08:01:04;0.95;;;0.80;;
19946;SDS011;10135;50.702;7.276;2022-08-06T08:03:06;0.77;;;0.70;;
19946;SDS011;10135;50.702;7.276;2022-08-06T08:05:28;2.73;;;1.03;;
19946;SDS011;10135;50.702;7.276;2022-08-06T08:07:47;1.77;;;0.80;;
19946;SDS011;10135;50.702;7.276;2022-08-06T08:09:48;2.05;;;0.95;;
19946;SDS011;10135;50.702;7.276;2022-08-06T08:11:50;1.17;;;0.90;;
19946;SDS011;10135;50.702;7.276;2022-08-06T08:13:52;1.60;;;0.90;;
19946;SDS011;10135;50.702;7.276;2022-08-06T08:15:58;1.92;;;1.02;;
19946;SDS011;10135;50.702;7.276;2022-08-06T08:18:00;1.05;;;0.93;;
19946;SDS011;10135;50.702;7.276;2022-08-06T08:20:05;0.88;;;0.88;;
19946;SDS011;10135;50.702;7.276;2022-08-06T08:22:09;1.15;;;0.80;;
19946;SDS011;10135;50.702;7.276;2022-08-06T08:24:18;3.40;;;0.80;;
19946;SDS011;10135;50.702;7.276;2022-08-06T08:26:19;1.15;;;0.70;;
19946;SDS011;10135;50.702;7.276;2022-08-06T08:28:20;1.48;;;0.90;;
19946;SDS011;10135;50.702;7.276;2022-08-06T08:30:20;1.13;;;1.00;;
19946;SDS011;10135;50.702;7.276;2022-08-06T08:32:21;0.70;;;0.70;;
19946;SDS011;10135;50.702;7.276;2022-08-06T08:34:22;1.75;;;0.85;;
19946;SDS011;10135;50.702;7.276;2022-08-06T08:36:23;0.80;;;0.80;;
19946;SDS011;10135;50.702;7.276;2022-08-06T08:38:24;1.60;;;1.20;;
19946;SDS011;10135;50.702;7.276;2022-08-06T08:40:24;1.17;;;0.68;;
19946;SDS011;10135;50.702;7.276;2022-08-06T08:42:50;0.70;;;0.70;;
19946;SDS011;10135;50.702;7.276;2022-08-06T08:44:54;0.98;;;0.85;;
19946;SDS011;10135;50.702;7.276;2022-08-06T08:46:57;1.27;;;0.93;;
19946;SDS011;10135;50.702;7.276;2022-08-06T08:49:01;0.77;;;0.70;;
19946;SDS011;10135;50.702;7.276;2022-08-06T08:51:05;2.05;;;0.90;;
19946;SDS011;10135;50.702;7.276;2022-08-06T08:53:14;0.70;;;0.70;;
19946;SDS011;10135;50.702;7.276;2022-08-06T08:55:28;0.68;;;0.65;;
19946;SDS011;10135;50.702;7.276;2022-08-06T08:57:30;0.60;;;0.60;;
19946;SDS011;10135;50.702;7.276;2022-08-06T08:59:33;0.98;;;0.80;;
19946;SDS011;10135;50.702;7.276;2022-08-06T09:01:36;1.00;;;0.88;;
19946;SDS011;10135;50.702;7.276;2022-08-06T09:03:38;0.80;;;0.80;;
19946;SDS011;10135;50.702;7.276;2022-08-06T09:05:39;2.92;;;0.85;;
19946;SDS011;10135;50.702;7.276;2022-08-06T09:07:41;0.80;;;0.80;;
19946;SDS011;10135;50.702;7.276;2022-08-06T09:09:42;1.05;;;0.80;;
19946;SDS011;10135;50.702;7.276;2022-08-06T09:11:43;0.75;;;0.75;;
19946;SDS011;10135;50.702;7.276;2022-08-06T09:13:45;0.88;;;0.88;;
19946;SDS011;10135;50.702;7.276;2022-08-06T09:15:46;0.90;;;0.70;;
19946;SDS011;10135;50.702;7.276;2022-08-06T09:17:47;0.98;;;0.80;;
19946;SDS011;10135;50.702;7.276;2022-08-06T09:19:48;0.93;;;0.73;;
19946;SDS011;10135;50.702;7.276;2022-08-06T09:21:49;0.77;;;0.75;;
19946;SDS011;10135;50.702;7.276;2022-08-06T09:23:51;0.77;;;0.77;;
19946;SDS011;10135;50.702;7.276;2022-08-06T09:25:52;1.45;;;0.75;;
19946;SDS011;10135;50.702;7.276;2022-08-06T09:27:53;0.68;;;0.68;;
19946;SDS011;10135;50.702;7.276;2022-08-06T09:29:55;1.10;;;1.00;;
19946;SDS011;10135;50.702;7.276;2022-08-06T09:31:58;1.48;;;0.80;;
19946;SDS011;10135;50.702;7.276;2022-08-06T09:34:02;0.70;;;0.70;;
19946;SDS011;10135;50.702;7.276;2022-08-06T09:36:06;1.15;;;1.00;;
19946;SDS011;10135;50.702;7.276;2022-08-06T09:38:14;1.00;;;1.00;;
19946;SDS011;10135;50.702;7.276;2022-08-06T09:40:19;0.93;;;0.90;;
19946;SDS011;10135;50.702;7.276;2022-08-06T09:42:38;1.00;;;0.90;;
19946;SDS011;10135;50.702;7.276;2022-08-06T09:44:42;0.90;;;0.90;;
19946;SDS011;10135;50.702;7.276;2022-08-06T09:47:03;1.38;;;0.82;;
19946;SDS011;10135;50.702;7.276;2022-08-06T09:49:06;0.88;;;0.77;;
19946;SDS011;10135;50.702;7.276;2022-08-06T09:51:20;0.70;;;0.60;;
19946;SDS011;10135;50.702;7.276;2022-08-06T09:53:22;0.55;;;0.55;;
19946;SDS011;10135;50.702;7.276;2022-08-06T09:55:29;0.50;;;0.50;;
19946;SDS011;10135;50.702;7.276;2022-08-06T09:57:44;0.80;;;0.80;;
19946;SDS011;10135;50.702;7.276;2022-08-06T09:59:46;0.68;;;0.68;;
19946;SDS011;10135;50.702;7.276;2022-08-06T10:01:48;1.02;;;0.63;;
19946;SDS011;10135;50.702;7.276;2022-08-06T10:03:49;0.90;;;0.77;;
19946;SDS011;10135;50.702;7.276;2022-08-06T10:06:04;0.70;;;0.70;;
19946;SDS011;10135;50.702;7.276;2022-08-06T10:08:08;2.22;;;0.80;;
19946;SDS011;10135;50.702;7.276;2022-08-06T10:10:16;1.75;;;0.80;;
19946;SDS011;10135;50.702;7.276;2022-08-06T10:12:18;1.13;;;0.70;;
19946;SDS011;10135;50.702;7.276;2022-08-06T10:14:22;1.15;;;0.70;;
19946;SDS011;10135;50.702;7.276;2022-08-06T10:16:27;1.10;;;0.70;;
19946;SDS011;10135;50.702;7.276;2022-08-06T10:18:30;0.70;;;0.60;;
19946;SDS011;10135;50.702;7.276;2022-08-06T10:20:34;0.73;;;0.73;;
19946;SDS011;10135;50.702;7.276;2022-08-06T10:22:35;0.77;;;0.70;;
19946;SDS011;10135;50.702;7.276;2022-08-06T10:24:37;0.55;;;0.55;;
19946;SDS011;10135;50.702;7.276;2022-08-06T10:26:52;0.55;;;0.55;;
19946;SDS011;10135;50.702;7.276;2022-08-06T10:28:54;1.52;;;0.82;;
19946;SDS011;10135;50.702;7.276;2022-08-06T10:31:05;0.60;;;0.60;;
19946;SDS011;10135;50.702;7.276;2022-08-06T10:33:10;0.50;;;0.50;;
19946;SDS011;10135;50.702;7.276;2022-08-06T10:35:14;0.65;;;0.50;;
19946;SDS011;10135;50.702;7.276;2022-08-06T10:37:20;1.05;;;0.80;;
19946;SDS011;10135;50.702;7.276;2022-08-06T10:39:22;0.80;;;0.63;;
19946;SDS011;10135;50.702;7.276;2022-08-06T10:41:31;0.60;;;0.50;;
19946;SDS011;10135;50.702;7.276;2022-08-06T10:43:38;0.57;;;0.57;;
19946;SDS011;10135;50.702;7.276;2022-08-06T10:45:39;1.10;;;0.60;;
19946;SDS011;10135;50.702;7.276;2022-08-06T10:47:43;1.75;;;0.60;;
19946;SDS011;10135;50.702;7.276;2022-08-06T10:49:46;1.00;;;0.55;;
19946;SDS011;10135;50.702;7.276;2022-08-06T10:51:48;0.60;;;0.57;;
19946;SDS011;10135;50.702;7.276;2022-08-06T10:53:49;1.08;;;0.70;;
19946;SDS011;10135;50.702;7.276;2022-08-06T10:55:51;0.95;;;0.60;;
19946;SDS011;10135;50.702;7.276;2022-08-06T10:57:53;0.75;;;0.60;;
19946;SDS011;10135;50.702;7.276;2022-08-06T10:59:54;0.50;;;0.50;;
19946;SDS011;10135;50.702;7.276;2022-08-06T11:04:58;0.63;;;0.63;;
19946;SDS011;10135;50.702;7.276;2022-08-06T11:07:05;1.35;;;0.50;;
19946;SDS011;10135;50.702;7.276;2022-08-06T11:12:26;3.47;;;0.93;;
19946;SDS011;10135;50.702;7.276;2022-08-06T11:14:50;0.60;;;0.60;;
19946;SDS011;10135;50.702;7.276;2022-08-06T11:16:56;0.75;;;0.70;;
19946;SDS011;10135;50.702;7.276;2022-08-06T11:19:03;1.17;;;0.70;;
19946;SDS011;10135;50.702;7.276;2022-08-06T11:21:18;0.52;;;0.50;;
19946;SDS011;10135;50.702;7.276;2022-08-06T11:24:01;2.60;;;0.55;;
19946;SDS011;10135;50.702;7.276;2022-08-06T11:26:03;0.55;;;0.55;;
19946;SDS011;10135;50.702;7.276;2022-08-06T11:28:04;0.77;;;0.50;;
19946;SDS011;10135;50.702;7.276;2022-08-06T11:30:11;0.68;;;0.60;;
19946;SDS011;10135;50.702;7.276;2022-08-06T11:32:41;0.60;;;0.60;;
19946;SDS011;10135;50.702;7.276;2022-08-06T11:34:51;0.60;;;0.60;;
19946;SDS011;10135;50.702;7.276;2022-08-06T11:36:55;0.60;;;0.60;;
19946;SDS011;10135;50.702;7.276;2022-08-06T11:38:59;0.60;;;0.60;;
19946;SDS011;10135;50.702;7.276;2022-08-06T11:41:01;0.35;;;0.35;;
19946;SDS011;10135;50.702;7.276;2022-08-06T11:43:08;2.45;;;0.50;;
19946;SDS011;10135;50.702;7.276;2022-08-06T11:45:09;0.55;;;0.45;;
19946;SDS011;10135;50.702;7.276;2022-08-06T11:47:12;0.52;;;0.52;;
19946;SDS011;10135;50.702;7.276;2022-08-06T11:49:21;0.80;;;0.80;;
19946;SDS011;10135;50.702;7.276;2022-08-06T11:54:07;1.45;;;0.60;;
19946;SDS011;10135;50.702;7.276;2022-08-06T11:56:24;0.60;;;0.60;;
19946;SDS011;10135;50.702;7.276;2022-08-06T11:58:24;0.52;;;0.52;;
19946;SDS011;10135;50.702;7.276;2022-08-06T12:00:25;2.20;;;0.68;;
19946;SDS011;10135;50.702;7.276;2022-08-06T12:06:44;0.63;;;0.60;;
19946;SDS011;10135;50.702;7.276;2022-08-06T12:09:04;1.25;;;0.45;;
19946;SDS011;10135;50.702;7.276;2022-08-06T12:11:22;0.52;;;0.52;;
19946;SDS011;10135;50.702;7.276;2022-08-06T12:13:36;1.15;;;0.50;;
19946;SDS011;10135;50.702;7.276;2022-08-06T12:15:39;0.40;;;0.40;;
19946;SDS011;10135;50.702;7.276;2022-08-06T12:18:01;2.35;;;0.57;;
19946;SDS011;10135;50.702;7.276;2022-08-06T12:20:01;0.60;;;0.60;;
19946;SDS011;10135;50.702;7.276;2022-08-06T12:22:03;0.77;;;0.60;;
19946;SDS011;10135;50.702;7.276;2022-08-06T12:24:06;0.40;;;0.40;;
19946;SDS011;10135;50.702;7.276;2022-08-06T12:26:07;0.73;;;0.60;;
19946;SDS011;10135;50.702;7.276;2022-08-06T12:28:09;0.60;;;0.60;;
19946;SDS011;10135;50.702;7.276;2022-08-06T12:30:12;0.55;;;0.50;;
19946;SDS011;10135;50.702;7.276;2022-08-06T12:32:46;0.55;;;0.55;;
19946;SDS011;10135;50.702;7.276;2022-08-06T12:34:39;0.88;;;0.60;;
19946;SDS011;10135;50.702;7.276;2022-08-06T12:36:40;0.55;;;0.52;;
19946;SDS011;10135;50.702;7.276;2022-08-06T12:38:43;1.75;;;0.50;;
19946;SDS011;10135;50.702;7.276;2022-08-06T12:40:56;0.40;;;0.40;;
19946;SDS011;10135;50.702;7.276;2022-08-06T12:45:01;0.63;;;0.63;;
19946;SDS011;10135;50.702;7.276;2022-08-06T12:47:11;0.43;;;0.43;;
19946;SDS011;10135;50.702;7.276;2022-08-06T12:49:12;0.60;;;0.52;;
19946;SDS011;10135;50.702;7.276;2022-08-06T12:51:13;0.63;;;0.50;;
19946;SDS011;10135;50.702;7.276;2022-08-06T12:53:17;0.57;;;0.50;;
19946;SDS011;10135;50.702;7.276;2022-08-06T12:55:18;0.47;;;0.40;;
19946;SDS011;10135;50.702;7.276;2022-08-06T12:57:19;0.80;;;0.60;;
19946;SDS011;10135;50.702;7.276;2022-08-06T12:59:30;0.60;;;0.60;;
19946;SDS011;10135;50.702;7.276;2022-08-06T13:01:33;0.60;;;0.60;;
19946;SDS011;10135;50.702;7.276;2022-08-06T13:03:37;1.65;;;0.60;;
19946;SDS011;10135;50.702;7.276;2022-08-06T13:05:43;0.43;;;0.40;;
19946;SDS011;10135;50.702;7.276;2022-08-06T13:07:45;0.50;;;0.50;;
19946;SDS011;10135;50.702;7.276;2022-08-06T13:09:47;1.02;;;0.60;;
19946;SDS011;10135;50.702;7.276;2022-08-06T13:11:48;0.60;;;0.50;;
19946;SDS011;10135;50.702;7.276;2022-08-06T13:13:50;0.55;;;0.55;;
19946;SDS011;10135;50.702;7.276;2022-08-06T13:15:58;0.40;;;0.40;;
19946;SDS011;10135;50.702;7.276;2022-08-06T13:18:14;0.80;;;0.45;;